Time;durP1;ratioP1;P1;durP2;ratioP2;P2;SDS_P1;SDS_P2;PMS_P1;PMS_P2;Temp;Humidity;BMP_temperature;BMP_pressure;BME280_temperature;BME280_humidity;BME280_pressure;Samples;Min_cycle;Max_cycle;Signal;HPM_P1;HPM_P2
2022/09/10 00:00:25;;;;;;;12.65;2.55;;;20.20;73.30;;;;;;5031821;28;20032;-61
2022/09/10 00:02:50;;;;;;;10.55;2.45;;;20.20;73.40;;;;;;5032480;28;20028;-62
2022/09/10 00:05:17;;;;;;;20.13;3.13;;;20.20;73.50;;;;;;5031717;28;20210;-62
2022/09/10 00:07:42;;;;;;;12.88;2.38;;;20.10;73.20;;;;;;5030926;28;20025;-62
2022/09/10 00:10:08;;;;;;;10.70;2.90;;;20.10;73.30;;;;;;5027101;28;20079;-62
2022/09/10 00:12:34;;;;;;;11.60;2.88;;;20.10;73.30;;;;;;5027894;28;20019;-62
2022/09/10 00:15:00;;;;;;;9.02;2.92;;;20.10;73.30;;;;;;5030977;28;20581;-62
2022/09/10 00:17:26;;;;;;;11.55;3.05;;;20.10;73.40;;;;;;5030983;28;20045;-62
2022/09/10 00:19:53;;;;;;;12.32;2.45;;;20.10;73.40;;;;;;5020140;28;20025;-63
2022/09/10 00:22:21;;;;;;;12.23;2.78;;;20.10;73.50;;;;;;5001364;28;20103;-61
2022/09/10 00:24:46;;;;;;;8.52;2.58;;;20.00;73.40;;;;;;5025872;28;20065;-62
2022/09/10 00:27:12;;;;;;;9.93;2.45;;;20.10;73.60;;;;;;5033102;28;20108;-61
2022/09/10 00:29:37;;;;;;;7.28;2.00;;;20.10;73.60;;;;;;5033235;28;20029;-62
2022/09/10 00:32:03;;;;;;;4.95;2.30;;;20.10;73.60;;;;;;5033911;28;20035;-61
2022/09/10 00:34:28;;;;;;;11.27;2.72;;;20.00;73.60;;;;;;5030496;28;20025;-62
2022/09/10 00:36:54;;;;;;;9.90;2.55;;;20.00;73.60;;;;;;5030865;28;20115;-61
2022/09/10 00:39:20;;;;;;;10.55;2.70;;;20.00;73.70;;;;;;5031784;28;20104;-62
2022/09/10 00:41:46;;;;;;;4.75;1.95;;;20.00;73.90;;;;;;5018325;28;20044;-62
2022/09/10 00:44:38;;;;;;;6.75;2.10;;;20.00;74.00;;;;;;5032293;28;20049;-62
2022/09/10 00:47:04;;;;;;;5.88;2.38;;;20.00;74.10;;;;;;5033766;28;20566;-62
2022/09/10 00:49:36;;;;;;;8.93;2.83;;;20.00;74.20;;;;;;5034028;28;20033;-62
2022/09/10 00:52:02;;;;;;;5.55;2.25;;;20.00;74.10;;;;;;5015001;28;20032;-62
2022/09/10 00:54:27;;;;;;;7.63;2.20;;;20.00;74.20;;;;;;5016496;28;20045;-62
2022/09/10 00:56:54;;;;;;;6.40;2.10;;;20.00;74.20;;;;;;5016454;28;20480;-62
2022/09/10 00:59:20;;;;;;;7.07;2.22;;;20.00;74.30;;;;;;5015257;28;20099;-62
2022/09/10 01:01:45;;;;;;;15.27;2.08;;;20.00;74.30;;;;;;5031013;28;20026;-62
2022/09/10 01:04:11;;;;;;;7.75;2.50;;;20.00;74.50;;;;;;5016646;28;20132;-63
2022/09/10 01:06:38;;;;;;;7.47;2.30;;;20.00;74.40;;;;;;5029703;28;20059;-62
2022/09/10 01:09:03;;;;;;;11.02;2.85;;;20.00;74.50;;;;;;5030929;28;20071;-62
2022/09/10 01:11:41;;;;;;;10.00;3.15;;;20.00;74.50;;;;;;5014612;28;20109;-62
2022/09/10 01:14:28;;;;;;;9.25;2.60;;;20.00;74.40;;;;;;5034276;28;20162;-62
2022/09/10 01:17:02;;;;;;;7.60;2.88;;;20.00;74.50;;;;;;5033888;28;20040;-62
2022/09/10 01:19:52;;;;;;;13.63;2.78;;;20.00;74.60;;;;;;5033068;28;20036;-62
2022/09/10 01:22:46;;;;;;;5.80;2.33;;;19.90;74.50;;;;;;5026901;28;20633;-63
2022/09/10 01:25:39;;;;;;;7.05;1.92;;;19.90;74.70;;;;;;5031947;28;20036;-62
2022/09/10 01:28:12;;;;;;;9.65;2.42;;;19.90;74.80;;;;;;5018777;28;20033;-62
2022/09/10 01:30:41;;;;;;;7.85;2.70;;;19.90;74.90;;;;;;5031922;28;20029;-63
2022/09/10 01:33:19;;;;;;;6.20;2.03;;;19.90;74.90;;;;;;5017550;28;20182;-63
2022/09/10 01:35:50;;;;;;;5.53;1.90;;;19.90;74.90;;;;;;5034112;28;20029;-62
2022/09/10 01:38:34;;;;;;;7.32;2.80;;;19.90;75.00;;;;;;5021702;28;20024;-63
2022/09/10 01:41:00;;;;;;;4.28;2.22;;;19.90;75.00;;;;;;5019236;28;20457;-62
2022/09/10 01:43:26;;;;;;;11.25;2.35;;;19.90;75.00;;;;;;5037446;28;20048;-62
2022/09/10 01:45:54;;;;;;;9.55;4.18;;;19.90;75.00;;;;;;5016580;28;20021;-62
2022/09/10 01:48:38;;;;;;;13.43;4.40;;;19.90;75.00;;;;;;5036390;28;20030;-62
2022/09/10 01:51:25;;;;;;;6.85;3.60;;;19.90;75.20;;;;;;5035759;28;20037;-63
2022/09/10 01:53:51;;;;;;;6.00;2.83;;;19.90;75.20;;;;;;5035341;28;20040;-63
2022/09/10 01:56:34;;;;;;;9.02;2.80;;;19.80;75.30;;;;;;5035687;28;20388;-62
2022/09/10 01:59:03;;;;;;;5.20;2.70;;;19.90;75.50;;;;;;5021028;28;20114;-63
2022/09/10 02:01:32;;;;;;;7.53;2.85;;;19.80;75.70;;;;;;5036778;28;20048;-63
2022/09/10 02:04:00;;;;;;;7.93;2.75;;;19.80;75.60;;;;;;5037818;28;20499;-63
2022/09/10 02:06:28;;;;;;;5.47;2.97;;;19.80;75.70;;;;;;5019097;28;20047;-63
2022/09/10 02:08:55;;;;;;;4.38;2.60;;;19.80;75.70;;;;;;5018788;28;20107;-63
2022/09/10 02:11:20;;;;;;;5.35;2.65;;;19.80;75.80;;;;;;5018313;28;21050;-63
2022/09/10 02:13:46;;;;;;;5.00;2.78;;;19.80;76.10;;;;;;5036375;28;20119;-62
2022/09/10 02:16:14;;;;;;;4.97;2.40;;;19.70;76.30;;;;;;5019044;28;20035;-63
2022/09/10 02:18:41;;;;;;;5.78;2.42;;;19.80;76.40;;;;;;5037136;28;20492;-63
2022/09/10 02:21:06;;;;;;;4.88;2.67;;;19.70;76.40;;;;;;5034572;28;20039;-63
2022/09/10 02:23:36;;;;;;;12.88;3.10;;;19.70;76.50;;;;;;5007321;28;20063;-63
2022/09/10 02:26:01;;;;;;;6.40;2.90;;;19.70;76.80;;;;;;5023487;28;20381;-63
2022/09/10 02:28:27;;;;;;;6.78;2.33;;;19.70;77.00;;;;;;5037095;28;20314;-62
2022/09/10 02:30:53;;;;;;;4.60;2.65;;;19.70;77.00;;;;;;5029515;28;20043;-62
2022/09/10 02:33:19;;;;;;;8.50;2.50;;;19.70;76.80;;;;;;5035621;28;20052;-63
2022/09/10 02:35:46;;;;;;;4.22;2.55;;;19.70;77.10;;;;;;5034750;28;20128;-63
2022/09/10 02:38:12;;;;;;;8.25;2.70;;;19.70;77.30;;;;;;5033978;28;20432;-63
2022/09/10 02:40:38;;;;;;;5.43;2.47;;;19.70;77.20;;;;;;5015817;28;20087;-63
2022/09/10 02:43:03;;;;;;;6.40;2.47;;;19.70;77.20;;;;;;5032864;28;20484;-63
2022/09/10 02:45:29;;;;;;;3.92;2.15;;;19.70;77.70;;;;;;5018231;28;21159;-63
2022/09/10 02:47:55;;;;;;;3.28;2.15;;;19.60;77.80;;;;;;5019530;28;20033;-63
2022/09/10 02:50:20;;;;;;;7.88;2.40;;;19.60;77.90;;;;;;5020183;28;20129;-63
2022/09/10 02:52:46;;;;;;;11.80;2.47;;;19.60;78.00;;;;;;5017878;28;20674;-62
2022/09/10 02:55:12;;;;;;;4.53;2.25;;;19.60;77.90;;;;;;5034788;28;20029;-63
2022/09/10 02:57:38;;;;;;;7.03;2.55;;;19.60;77.90;;;;;;5033235;28;20189;-63
2022/09/10 03:00:05;;;;;;;5.53;2.35;;;19.60;77.80;;;;;;5035020;28;20027;-63
2022/09/10 03:02:31;;;;;;;7.80;2.33;;;19.60;77.90;;;;;;5019576;28;20020;-63
2022/09/10 03:04:56;;;;;;;9.35;2.67;;;19.60;78.30;;;;;;5033490;28;20500;-63
2022/09/10 03:07:22;;;;;;;9.38;2.40;;;19.50;78.40;;;;;;5033339;28;20071;-63
2022/09/10 03:09:48;;;;;;;7.22;2.63;;;19.50;78.20;;;;;;5034532;28;20116;-63
2022/09/10 03:12:15;;;;;;;5.60;2.47;;;19.50;78.40;;;;;;5033400;28;20401;-62
2022/09/10 03:14:41;;;;;;;9.18;2.90;;;19.50;78.40;;;;;;5034408;28;20401;-63
2022/09/10 03:17:08;;;;;;;11.35;3.95;;;19.50;78.50;;;;;;5029316;28;20505;-62
2022/09/10 03:19:34;;;;;;;11.77;5.20;;;19.50;79.30;;;;;;5005195;28;20578;-63
2022/09/10 03:22:00;;;;;;;9.63;3.30;;;19.40;78.60;;;;;;5027445;28;20037;-63
2022/09/10 03:24:25;;;;;;;10.45;2.85;;;19.50;78.70;;;;;;5028869;28;20044;-63
2022/09/10 03:26:51;;;;;;;4.32;2.70;;;19.50;78.70;;;;;;5030351;28;20036;-63
2022/09/10 03:29:16;;;;;;;5.70;2.88;;;19.50;78.70;;;;;;5030860;28;20098;-63
2022/09/10 03:31:43;;;;;;;6.68;2.80;;;19.40;78.70;;;;;;5028360;28;20091;-63
2022/09/10 03:34:12;;;;;;;6.13;2.40;;;19.50;78.80;;;;;;5034768;28;20033;-63
2022/09/10 03:36:37;;;;;;;6.40;2.58;;;19.50;78.80;;;;;;5030176;28;20037;-63
2022/09/10 03:39:03;;;;;;;4.82;2.90;;;19.40;78.80;;;;;;5031227;28;20033;-62
2022/09/10 03:41:29;;;;;;;5.78;2.72;;;19.40;78.80;;;;;;5013663;28;20425;-63
2022/09/10 03:43:56;;;;;;;9.25;2.40;;;19.40;78.70;;;;;;5013647;28;21467;-63
2022/09/10 03:46:21;;;;;;;6.10;2.90;;;19.40;78.80;;;;;;4998897;28;20216;-63
2022/09/10 03:48:47;;;;;;;13.88;2.72;;;19.40;78.90;;;;;;5028707;28;20028;-63
2022/09/10 03:51:14;;;;;;;3.97;2.13;;;19.40;79.00;;;;;;5016838;28;20067;-63
2022/09/10 03:53:40;;;;;;;6.03;2.60;;;19.30;79.00;;;;;;5029066;28;20029;-63
2022/09/10 03:56:07;;;;;;;9.30;2.55;;;19.30;79.00;;;;;;5033303;28;20473;-63
2022/09/10 03:58:33;;;;;;;3.08;1.98;;;19.30;79.00;;;;;;5033533;28;20067;-63
2022/09/10 04:00:58;;;;;;;5.65;1.92;;;19.30;79.10;;;;;;5017020;28;20140;-63
2022/09/10 04:03:24;;;;;;;10.20;2.42;;;19.30;79.10;;;;;;5032573;28;20038;-63
2022/09/10 04:05:50;;;;;;;5.45;2.00;;;19.30;79.00;;;;;;5030246;28;20140;-63
2022/09/10 04:08:15;;;;;;;3.78;2.15;;;19.30;79.10;;;;;;5029818;28;20040;-63
2022/09/10 04:10:41;;;;;;;4.20;2.03;;;19.30;79.10;;;;;;5034890;28;20578;-63
2022/09/10 04:13:08;;;;;;;3.25;1.83;;;19.30;79.10;;;;;;5011306;28;20040;-63
2022/09/10 04:15:33;;;;;;;12.18;2.30;;;19.30;79.30;;;;;;5031441;28;20028;-64
2022/09/10 04:17:59;;;;;;;5.35;2.35;;;19.30;79.20;;;;;;5032052;28;20033;-63
2022/09/10 04:20:24;;;;;;;6.28;2.03;;;19.20;79.30;;;;;;5011595;28;20025;-63
2022/09/10 04:22:50;;;;;;;4.38;2.17;;;19.20;79.40;;;;;;5010906;28;20448;-63
2022/09/10 04:25:16;;;;;;;4.80;2.05;;;19.20;79.40;;;;;;4997977;28;20025;-63
2022/09/10 04:27:42;;;;;;;3.63;2.03;;;19.20;79.50;;;;;;5029510;28;20421;-63
2022/09/10 04:30:08;;;;;;;5.70;1.85;;;19.20;79.40;;;;;;5027368;28;20044;-63
2022/09/10 04:32:34;;;;;;;2.70;1.83;;;19.20;79.50;;;;;;5014570;28;20535;-63
2022/09/10 04:35:01;;;;;;;4.80;2.00;;;19.20;79.40;;;;;;5033939;28;20038;-63
2022/09/10 04:37:27;;;;;;;6.10;2.05;;;19.20;79.50;;;;;;5028769;28;20021;-63
2022/09/10 04:39:53;;;;;;;2.83;1.95;;;19.20;79.60;;;;;;5031579;28;20052;-63
2022/09/10 04:42:19;;;;;;;5.00;1.90;;;19.20;79.60;;;;;;5033083;28;20048;-63
2022/09/10 04:44:45;;;;;;;4.60;2.00;;;19.20;79.70;;;;;;5032025;28;20073;-63
2022/09/10 04:47:11;;;;;;;24.48;3.00;;;19.20;79.80;;;;;;5027950;28;20709;-63
2022/09/10 04:49:36;;;;;;;20.63;3.33;;;19.20;80.50;;;;;;5031779;28;20033;-63
2022/09/10 04:52:02;;;;;;;27.20;3.58;;;19.20;79.90;;;;;;5029793;28;20036;-63
2022/09/10 04:54:27;;;;;;;25.65;3.58;;;19.10;79.90;;;;;;5031650;28;20412;-64
2022/09/10 04:56:53;;;;;;;21.50;3.33;;;19.10;79.90;;;;;;5025573;28;20052;-63
2022/09/10 04:59:19;;;;;;;17.63;3.03;;;19.20;80.50;;;;;;5029561;28;20451;-63
2022/09/10 05:01:44;;;;;;;26.20;3.47;;;19.10;79.90;;;;;;5025671;28;20086;-63
2022/09/10 05:04:10;;;;;;;27.52;2.95;;;19.10;80.00;;;;;;5035102;28;20021;-64
2022/09/10 05:06:35;;;;;;;10.48;2.58;;;19.20;80.30;;;;;;5015053;28;20428;-63
2022/09/10 05:09:02;;;;;;;20.42;2.95;;;19.10;80.40;;;;;;5032029;28;20656;-63
2022/09/10 05:11:28;;;;;;;19.45;2.58;;;19.10;80.20;;;;;;5031721;28;20025;-64
2022/09/10 05:13:53;;;;;;;19.27;3.40;;;19.10;80.40;;;;;;5029425;28;20029;-63
2022/09/10 05:16:20;;;;;;;14.77;2.97;;;19.10;80.40;;;;;;5031511;28;20118;-62
2022/09/10 05:18:45;;;;;;;13.75;2.85;;;19.10;80.40;;;;;;5028674;28;20144;-62
2022/09/10 05:21:11;;;;;;;22.02;3.28;;;19.10;80.50;;;;;;5030411;28;20493;-63
2022/09/10 05:23:38;;;;;;;15.77;2.67;;;19.10;80.50;;;;;;5032084;28;20030;-65
2022/09/10 05:26:03;;;;;;;11.45;2.38;;;19.10;80.40;;;;;;5031804;28;20488;-64
2022/09/10 05:28:29;;;;;;;19.60;2.97;;;19.10;80.40;;;;;;4995638;28;20044;-64
2022/09/10 05:30:54;;;;;;;19.38;2.47;;;19.10;80.40;;;;;;5028065;28;20045;-63
2022/09/10 05:33:20;;;;;;;16.30;2.45;;;19.10;80.40;;;;;;5032974;28;20025;-64
2022/09/10 05:35:48;;;;;;;26.90;3.15;;;19.10;80.40;;;;;;5027548;28;20038;-63
2022/09/10 05:38:13;;;;;;;21.23;2.42;;;19.10;80.50;;;;;;5030595;28;20043;-64
2022/09/10 05:40:41;;;;;;;10.15;2.70;;;19.10;80.70;;;;;;5027728;28;20035;-63
2022/09/10 05:43:06;;;;;;;19.23;2.85;;;19.10;80.80;;;;;;5014670;28;20056;-63
2022/09/10 05:45:32;;;;;;;12.10;2.50;;;19.10;80.80;;;;;;5017251;28;20088;-62
2022/09/10 05:47:58;;;;;;;6.25;1.98;;;19.10;80.80;;;;;;5029522;28;20484;-63
2022/09/10 05:50:24;;;;;;;12.75;2.40;;;19.00;80.90;;;;;;5024940;28;20021;-64
2022/09/10 05:52:50;;;;;;;9.95;2.05;;;19.00;81.00;;;;;;5014355;28;20036;-63
2022/09/10 05:55:16;;;;;;;8.10;2.40;;;19.00;81.00;;;;;;5027436;28;20272;-63
2022/09/10 05:57:41;;;;;;;10.85;2.58;;;19.00;81.00;;;;;;5028015;28;21048;-62
2022/09/10 06:00:08;;;;;;;13.18;2.25;;;19.00;81.10;;;;;;5030202;28;20029;-63
2022/09/10 06:02:34;;;;;;;14.30;2.40;;;19.00;81.00;;;;;;5007010;28;20534;-63
2022/09/10 06:04:59;;;;;;;14.65;2.70;;;19.00;81.10;;;;;;5024798;28;20634;-63
2022/09/10 06:07:28;;;;;;;7.68;1.90;;;19.00;81.10;;;;;;5025224;28;20079;-63
2022/09/10 06:09:54;;;;;;;15.25;2.35;;;19.00;81.10;;;;;;5032605;28;20067;-63
2022/09/10 06:12:19;;;;;;;9.68;2.10;;;19.00;81.10;;;;;;5033140;28;20048;-63
2022/09/10 06:14:45;;;;;;;8.18;2.08;;;19.00;81.20;;;;;;5031896;28;20604;-63
2022/09/10 06:17:11;;;;;;;6.97;2.10;;;19.00;81.10;;;;;;5028931;28;20029;-63
2022/09/10 06:19:36;;;;;;;6.10;1.60;;;18.90;81.10;;;;;;5017830;28;20075;-63
2022/09/10 06:22:02;;;;;;;11.98;2.05;;;19.00;81.20;;;;;;5028367;28;20060;-64
2022/09/10 06:24:28;;;;;;;6.55;2.03;;;19.00;81.10;;;;;;5033375;28;20021;-63
2022/09/10 06:26:53;;;;;;;7.78;1.85;;;19.00;81.10;;;;;;5034229;28;20073;-63
2022/09/10 06:29:19;;;;;;;6.28;1.50;;;19.00;81.10;;;;;;5029213;28;20064;-63
2022/09/10 06:31:47;;;;;;;8.45;1.77;;;19.00;81.20;;;;;;5036206;28;20534;-63
2022/09/10 06:34:13;;;;;;;4.88;1.98;;;19.10;81.20;;;;;;5034069;28;20051;-65
2022/09/10 06:36:38;;;;;;;5.05;1.42;;;19.00;81.20;;;;;;5027248;28;20040;-62
2022/09/10 06:39:06;;;;;;;15.35;1.98;;;19.00;81.20;;;;;;5033503;28;20036;-66
2022/09/10 06:41:33;;;;;;;5.05;1.60;;;19.00;81.50;;;;;;5033321;28;20028;-63
2022/09/10 06:43:59;;;;;;;5.82;1.35;;;19.00;81.60;;;;;;5035023;28;20547;-63
2022/09/10 06:46:25;;;;;;;11.73;1.73;;;18.90;81.60;;;;;;5035091;28;20024;-63
2022/09/10 06:48:50;;;;;;;6.22;1.38;;;18.90;81.50;;;;;;5018234;28;20489;-63
2022/09/10 06:51:16;;;;;;;6.10;1.80;;;19.00;81.70;;;;;;5032566;28;20303;-63
2022/09/10 06:53:42;;;;;;;4.82;1.45;;;18.90;81.50;;;;;;5017829;28;20465;-63
2022/09/10 06:56:09;;;;;;;4.25;1.38;;;18.90;81.70;;;;;;5018413;28;20075;-63
2022/09/10 06:58:35;;;;;;;5.80;1.52;;;19.00;81.80;;;;;;5021324;28;20029;-64
2022/09/10 07:01:13;;;;;;;4.20;1.30;;;18.90;81.90;;;;;;5017916;28;20461;-63
2022/09/10 07:03:39;;;;;;;4.47;1.15;;;18.90;82.20;;;;;;5034118;28;20036;-64
2022/09/10 07:06:05;;;;;;;4.22;1.10;;;18.90;82.10;;;;;;5030961;28;20024;-63
2022/09/10 07:08:31;;;;;;;4.95;1.40;;;18.90;82.00;;;;;;5015822;28;20395;-64
2022/09/10 07:11:06;;;;;;;3.22;1.15;;;19.00;82.30;;;;;;5035298;28;20172;-64
2022/09/10 07:13:32;;;;;;;;;;;19.00;82.10;;;;;;5033937;28;20756;-63
2022/09/10 07:15:58;;;;;;;4.88;1.38;;;19.00;82.20;;;;;;5028610;28;20003;-64
2022/09/10 07:18:24;;;;;;;5.85;1.58;;;19.00;82.00;;;;;;5030820;28;20048;-63
2022/09/10 07:20:50;;;;;;;2.58;0.93;;;19.00;82.00;;;;;;5028740;28;20029;-63
2022/09/10 07:23:17;;;;;;;8.02;1.05;;;19.00;82.30;;;;;;5028885;28;20063;-62
2022/09/10 07:25:42;;;;;;;1.58;1.02;;;19.00;82.20;;;;;;5023517;28;20112;-63
2022/09/10 07:28:14;;;;;;;3.33;1.05;;;19.10;82.20;;;;;;5027989;28;20405;-63
2022/09/10 07:30:41;;;;;;;5.32;1.15;;;19.00;82.10;;;;;;5017491;28;20060;-63
2022/09/10 07:33:06;;;;;;;1.75;0.98;;;19.10;82.10;;;;;;5032509;28;20082;-63
2022/09/10 07:35:35;;;;;;;3.47;1.33;;;19.10;82.10;;;;;;5027360;28;20047;-63
2022/09/10 07:38:05;;;;;;;4.05;1.20;;;19.10;82.00;;;;;;5032394;28;20028;-63
2022/09/10 07:40:31;;;;;;;3.55;1.33;;;19.10;82.10;;;;;;5030227;28;20025;-63
2022/09/10 07:42:58;;;;;;;4.80;1.20;;;19.10;82.30;;;;;;5027398;28;20040;-62
2022/09/10 07:45:24;;;;;;;2.67;1.10;;;19.10;82.50;;;;;;5024149;28;20033;-63
2022/09/10 07:47:50;;;;;;;2.75;1.30;;;19.10;82.50;;;;;;5026475;28;20698;-63
2022/09/10 07:50:15;;;;;;;1.38;0.73;;;19.10;82.60;;;;;;5027521;28;20037;-63
2022/09/10 07:52:41;;;;;;;2.55;0.90;;;19.20;82.80;;;;;;5011531;28;20084;-64
2022/09/10 07:55:07;;;;;;;1.35;0.70;;;19.20;82.80;;;;;;5011081;28;20473;-64
2022/09/10 07:57:39;;;;;;;2.85;0.82;;;19.20;82.80;;;;;;5000177;28;20075;-63
2022/09/10 08:00:07;;;;;;;1.65;0.70;;;19.20;82.70;;;;;;5021164;28;20029;-63
2022/09/10 08:02:32;;;;;;;4.03;1.00;;;19.20;82.80;;;;;;5020428;28;20275;-64
2022/09/10 08:04:58;;;;;;;3.40;1.30;;;19.20;82.80;;;;;;5029248;28;20041;-64
2022/09/10 08:07:23;;;;;;;7.80;1.25;;;19.30;83.30;;;;;;5003169;28;20030;-63
2022/09/10 08:09:49;;;;;;;4.25;1.50;;;19.30;83.90;;;;;;5027838;28;20076;-63
2022/09/10 08:12:15;;;;;;;14.15;1.73;;;19.30;83.90;;;;;;5032178;28;20408;-63
2022/09/10 08:14:41;;;;;;;9.38;1.70;;;19.30;84.10;;;;;;5027997;28;20082;-63
2022/09/10 08:17:06;;;;;;;7.22;1.75;;;19.30;84.30;;;;;;5020671;28;20480;-63
2022/09/10 08:19:32;;;;;;;22.00;2.38;;;19.30;84.50;;;;;;5030738;28;20033;-63
2022/09/10 08:21:58;;;;;;;24.20;3.17;;;19.30;84.00;;;;;;5018970;28;20029;-63
2022/09/10 08:24:24;;;;;;;25.85;3.17;;;19.30;83.80;;;;;;5021770;28;20061;-64
2022/09/10 08:26:49;;;;;;;30.63;2.92;;;19.40;84.00;;;;;;5029371;28;20064;-63
2022/09/10 08:29:15;;;;;;;31.13;4.28;;;19.40;84.20;;;;;;5023972;28;20260;-63
2022/09/10 08:31:41;;;;;;;36.90;4.45;;;19.40;84.70;;;;;;5026173;28;20047;-63
2022/09/10 08:34:08;;;;;;;36.78;5.07;;;19.40;84.70;;;;;;5026261;28;20100;-63
2022/09/10 08:36:34;;;;;;;77.90;8.15;;;19.20;84.60;;;;;;5025900;28;20039;-63
2022/09/10 08:38:59;;;;;;;61.35;6.93;;;19.40;84.70;;;;;;5026307;28;20029;-64
2022/09/10 08:41:25;;;;;;;88.65;10.80;;;19.40;84.80;;;;;;5030147;28;20056;-63
2022/09/10 08:43:56;;;;;;;83.97;8.63;;;19.50;85.10;;;;;;5028178;28;20082;-63
2022/09/10 08:46:24;;;;;;;85.40;10.00;;;19.50;85.00;;;;;;5025856;28;21256;-63
2022/09/10 08:49:17;;;;;;;71.70;9.07;;;19.50;85.00;;;;;;5002979;28;20036;-63
2022/09/10 08:51:45;;;;;;;87.82;9.77;;;19.60;84.60;;;;;;5026940;28;20128;-64
2022/09/10 08:54:17;;;;;;;95.45;10.05;;;19.60;84.90;;;;;;5025061;28;20055;-63
2022/09/10 08:56:42;;;;;;;88.38;9.25;;;19.60;85.90;;;;;;5024470;28;20719;-63
2022/09/10 08:59:16;;;;;;;106.20;12.73;;;19.70;85.20;;;;;;5010639;28;20132;-63
2022/09/10 09:01:46;;;;;;;121.88;12.65;;;19.70;85.00;;;;;;5023556;28;20966;-63
2022/09/10 09:05:04;;;;;;;126.35;13.63;;;19.70;85.40;;;;;;5017503;28;20017;-63
2022/09/10 09:07:38;;;;;;;136.73;13.02;;;19.70;84.90;;;;;;5015071;28;20385;-63
2022/09/10 09:10:14;;;;;;;105.68;12.48;;;19.70;84.80;;;;;;5005261;28;20041;-63
2022/09/10 09:13:04;;;;;;;218.23;20.85;;;19.80;85.30;;;;;;5006564;28;20120;-63
2022/09/10 09:15:40;;;;;;;166.73;18.27;;;19.80;85.60;;;;;;5006283;28;20536;-63
2022/09/10 09:18:07;;;;;;;153.23;15.80;;;19.80;84.90;;;;;;5025533;28;20132;-63
2022/09/10 09:20:39;;;;;;;154.63;16.33;;;19.90;84.90;;;;;;5027781;28;20037;-65
2022/09/10 09:23:24;;;;;;;133.75;14.93;;;19.90;84.50;;;;;;5026727;28;20048;-64
2022/09/10 09:26:02;;;;;;;222.88;20.30;;;19.90;84.80;;;;;;5022919;28;20441;-66
2022/09/10 09:28:32;;;;;;;203.55;20.23;;;20.00;84.80;;;;;;5010780;28;20123;-64
2022/09/10 09:30:58;;;;;;;177.38;18.92;;;20.00;84.90;;;;;;5009077;28;20037;-63
2022/09/10 09:33:24;;;;;;;179.15;19.00;;;20.10;84.50;;;;;;5025590;28;20032;-64
2022/09/10 09:36:01;;;;;;;202.63;19.92;;;20.20;84.00;;;;;;5018194;28;20187;-63
2022/09/10 09:38:40;;;;;;;185.15;19.70;;;20.40;83.60;;;;;;5022043;28;20021;-63
2022/09/10 09:41:27;;;;;;;150.38;17.85;;;20.40;83.60;;;;;;5009359;28;20361;-63
2022/09/10 09:43:55;;;;;;;192.23;20.60;;;20.40;83.10;;;;;;5041250;28;20037;-63
2022/09/10 09:46:21;;;;;;;167.32;17.85;;;20.40;83.20;;;;;;5017241;28;20051;-63
2022/09/10 09:48:47;;;;;;;187.73;18.70;;;20.40;82.80;;;;;;5001792;28;20112;-63
2022/09/10 09:51:14;;;;;;;197.43;19.48;;;20.50;82.20;;;;;;5028496;28;20108;-63
2022/09/10 09:53:39;;;;;;;158.13;18.77;;;20.50;82.20;;;;;;5030128;28;20124;-63
2022/09/10 09:56:18;;;;;;;164.15;17.25;;;20.50;82.00;;;;;;5029423;28;20762;-63
2022/09/10 09:58:48;;;;;;;168.15;17.58;;;20.50;81.70;;;;;;5026361;28;20660;-63
2022/09/10 10:01:23;;;;;;;142.18;16.83;;;20.60;81.70;;;;;;5030826;28;20444;-63
2022/09/10 10:03:51;;;;;;;;;;;20.50;81.50;;;;;;5026998;28;20032;-63
2022/09/10 10:06:18;;;;;;;200.07;19.48;;;20.50;81.30;;;;;;5027515;28;19959;-63
2022/09/10 10:09:03;;;;;;;150.88;17.30;;;20.60;81.50;;;;;;5027149;28;20584;-63
2022/09/10 10:11:47;;;;;;;171.90;17.73;;;20.60;81.40;;;;;;5012730;28;20628;-63
2022/09/10 10:14:19;;;;;;;172.00;15.20;;;20.60;81.30;;;;;;5016035;28;20032;-63
2022/09/10 10:16:47;;;;;;;148.23;15.48;;;20.60;81.20;;;;;;5022796;28;20029;-63
2022/09/10 10:19:35;;;;;;;160.32;15.93;;;20.70;81.10;;;;;;5023646;28;20032;-63
2022/09/10 10:22:13;;;;;;;152.13;16.58;;;20.70;81.00;;;;;;5016961;28;20041;-64
2022/09/10 10:24:39;;;;;;;170.00;17.88;;;20.70;81.00;;;;;;5030780;28;20029;-63
2022/09/10 10:27:04;;;;;;;126.88;16.02;;;20.80;82.00;;;;;;5027409;28;20527;-63
2022/09/10 10:29:30;;;;;;;154.70;15.23;;;20.80;81.30;;;;;;5030875;28;20040;-63
2022/09/10 10:31:56;;;;;;;147.77;15.95;;;20.80;81.00;;;;;;5032465;28;20033;-63
2022/09/10 10:34:28;;;;;;;180.88;18.73;;;20.80;80.70;;;;;;5014257;28;20060;-63
2022/09/10 10:37:25;;;;;;;161.55;17.50;;;20.90;80.80;;;;;;5031555;28;20105;-63
2022/09/10 10:39:59;;;;;;;112.13;13.40;;;20.90;80.70;;;;;;5010310;28;20810;-64
2022/09/10 10:42:27;;;;;;;145.38;15.60;;;20.90;80.30;;;;;;5027940;28;20025;-62
2022/09/10 10:44:59;;;;;;;118.38;13.23;;;20.80;80.20;;;;;;5027319;28;20423;-63
2022/09/10 10:47:43;;;;;;;126.10;13.50;;;20.80;80.00;;;;;;5028556;28;20033;-63
2022/09/10 10:50:20;;;;;;;90.85;10.55;;;20.80;80.10;;;;;;5028001;28;20112;-63
2022/09/10 10:53:03;;;;;;;114.38;12.32;;;20.80;79.80;;;;;;5021445;28;20064;-63
2022/09/10 10:56:06;;;;;;;109.15;13.02;;;20.80;79.80;;;;;;5030336;28;20039;-63
2022/09/10 10:58:47;;;;;;;116.63;12.63;;;20.80;79.60;;;;;;5019238;28;20113;-63
2022/09/10 11:01:17;;;;;;;123.00;13.02;;;20.80;79.80;;;;;;5026729;28;20029;-64
2022/09/10 11:03:59;;;;;;;125.95;14.25;;;20.80;80.00;;;;;;5031820;28;20117;-64
2022/09/10 11:06:27;;;;;;;134.77;15.05;;;20.90;80.00;;;;;;5027674;28;20025;-64
2022/09/10 11:09:01;;;;;;;110.53;11.88;;;20.90;80.30;;;;;;5000450;28;20976;-63
2022/09/10 11:11:30;;;;;;;130.57;13.35;;;20.90;80.20;;;;;;5029324;28;20042;-64
2022/09/10 11:14:00;;;;;;;141.73;13.25;;;20.90;80.30;;;;;;5010346;28;20018;-64
2022/09/10 11:16:36;;;;;;;164.43;15.82;;;20.80;80.40;;;;;;5011392;28;20112;-65
2022/09/10 11:19:15;;;;;;;148.65;15.40;;;20.90;80.90;;;;;;5027544;28;20116;-62
2022/09/10 11:21:52;;;;;;;140.10;14.50;;;20.90;81.10;;;;;;5013993;28;20029;-65
2022/09/10 11:24:26;;;;;;;149.70;16.17;;;20.90;81.30;;;;;;5032661;28;20060;-64
2022/09/10 11:26:55;;;;;;;173.32;18.48;;;20.90;81.60;;;;;;5030630;28;20036;-63
2022/09/10 11:29:30;;;;;;;172.27;17.65;;;20.90;81.80;;;;;;5027444;28;20041;-63
2022/09/10 11:32:03;;;;;;;184.30;19.13;;;20.90;82.00;;;;;;5020818;28;20056;-64
2022/09/10 11:34:52;;;;;;;180.30;19.45;;;20.90;82.20;;;;;;5028844;28;20037;-65
2022/09/10 11:37:22;;;;;;;145.65;15.85;;;20.90;82.10;;;;;;5026967;28;20048;-64
2022/09/10 11:39:51;;;;;;;162.27;17.02;;;21.00;82.20;;;;;;5025270;28;20044;-64
2022/09/10 11:42:24;;;;;;;194.25;17.98;;;21.00;82.20;;;;;;5018642;28;20072;-64
2022/09/10 11:45:19;;;;;;;217.88;21.58;;;20.90;82.20;;;;;;5021924;28;20144;-64
2022/09/10 11:47:59;;;;;;;236.45;25.88;;;21.00;82.60;;;;;;5021421;28;20037;-64
2022/09/10 11:50:51;;;;;;;224.13;25.05;;;21.00;82.60;;;;;;5026160;28;20029;-63
2022/09/10 11:53:19;;;;;;;207.68;20.55;;;21.00;82.50;;;;;;5006614;28;20017;-64
2022/09/10 11:55:48;;;;;;;212.88;21.65;;;21.10;82.60;;;;;;5014570;28;20646;-64
2022/09/10 11:58:37;;;;;;;227.35;23.63;;;21.10;82.70;;;;;;5029079;28;20037;-64
2022/09/10 12:01:20;;;;;;;235.68;25.88;;;21.20;82.90;;;;;;5025315;28;20146;-68
2022/09/10 12:04:04;;;;;;;216.13;21.15;;;21.20;82.80;;;;;;5025648;28;20075;-64
2022/09/10 12:06:55;;;;;;;198.30;21.80;;;21.20;82.70;;;;;;5006351;28;20029;-64
2022/09/10 12:09:29;;;;;;;216.38;22.52;;;21.20;82.60;;;;;;5001627;28;20477;-63
2022/09/10 12:12:17;;;;;;;197.32;21.38;;;21.20;82.70;;;;;;5021666;28;20033;-65
2022/09/10 12:14:43;;;;;;;200.70;20.92;;;21.30;82.70;;;;;;5021594;28;20037;-63
2022/09/10 12:17:28;;;;;;;218.10;22.40;;;21.30;82.80;;;;;;5027232;28;20110;-67
2022/09/10 12:19:55;;;;;;;219.25;23.58;;;21.30;82.70;;;;;;5027282;28;20033;-66
2022/09/10 12:22:28;;;;;;;174.25;19.45;;;21.40;82.60;;;;;;5028269;28;21384;-64
2022/09/10 12:25:14;;;;;;;182.90;18.90;;;21.40;82.50;;;;;;5026369;28;20021;-63
2022/09/10 12:27:57;;;;;;;195.40;20.48;;;21.40;82.30;;;;;;5018608;28;21024;-63
2022/09/10 12:30:29;;;;;;;154.45;19.10;;;21.50;82.20;;;;;;5004293;28;20045;-64
2022/09/10 12:32:58;;;;;;;175.43;18.02;;;21.50;82.10;;;;;;5024695;28;20026;-63
2022/09/10 12:35:30;;;;;;;150.57;17.48;;;21.60;81.90;;;;;;5009691;28;20037;-63
2022/09/10 12:38:33;;;;;;;180.20;18.58;;;21.60;81.70;;;;;;5004817;28;20067;-64
2022/09/10 12:40:59;;;;;;;177.82;19.25;;;21.70;81.70;;;;;;5010188;28;20045;-63
2022/09/10 12:43:40;;;;;;;165.75;18.42;;;21.80;81.30;;;;;;4992096;28;20095;-64
2022/09/10 12:46:06;;;;;;;177.25;19.48;;;21.90;81.20;;;;;;5006726;28;20041;-64
2022/09/10 12:48:36;;;;;;;162.13;18.92;;;21.90;81.10;;;;;;5007685;28;20390;-63